createdAt,value
2019-02-05T00:00:17.655Z,53.42
2019-02-05T00:02:44.440Z,53.60
2019-02-05T00:05:11.332Z,53.90
2019-02-05T00:07:38.184Z,53.75
2019-02-05T00:10:07.764Z,53.58
2019-02-05T00:12:34.565Z,53.32
2019-02-05T00:15:01.508Z,53.33
2019-02-05T00:17:28.286Z,53.21
2019-02-05T00:19:55.083Z,53.36
2019-02-05T00:22:22.433Z,53.36
2019-02-05T00:24:49.236Z,53.49
2019-02-05T00:27:16.011Z,53.53
2019-02-05T00:29:42.971Z,53.67
2019-02-05T00:32:09.763Z,53.39
2019-02-05T00:34:36.561Z,53.04
2019-02-05T00:37:03.478Z,52.99
2019-02-05T00:39:30.264Z,53.30
2019-02-05T00:41:57.249Z,53.23
2019-02-05T00:44:24.178Z,53.69
2019-02-05T00:46:50.943Z,53.85
2019-02-05T00:49:17.740Z,53.75
2019-02-05T00:51:44.600Z,53.82
2019-02-05T00:54:11.397Z,53.75
2019-02-05T00:56:38.172Z,53.63
2019-02-05T00:59:05.332Z,53.60
2019-02-05T01:01:32.169Z,53.32
2019-02-05T01:03:58.941Z,53.19
2019-02-05T01:06:25.869Z,53.28
2019-02-05T01:08:52.657Z,53.08
2019-02-05T01:11:19.449Z,53.37
2019-02-05T01:13:46.386Z,53.38
2019-02-05T01:16:13.192Z,53.39
2019-02-05T01:18:40.288Z,53.28
2019-02-05T01:21:07.218Z,53.26
2019-02-05T01:23:34.025Z,53.09
2019-02-05T01:26:00.801Z,52.99
2019-02-05T01:28:27.671Z,53.10
2019-02-05T01:30:54.465Z,53.37
2019-02-05T01:33:21.272Z,53.06
2019-02-05T01:35:48.601Z,53.25
2019-02-05T01:38:15.392Z,53.46
2019-02-05T01:40:42.189Z,53.65
2019-02-05T01:43:09.042Z,53.44
2019-02-05T01:45:35.834Z,53.37
2019-02-05T01:48:02.621Z,53.38
2019-02-05T01:50:29.555Z,53.68
2019-02-05T01:52:56.356Z,53.66
2019-02-05T01:55:23.154Z,53.63
2019-02-05T01:57:50.006Z,53.58
2019-02-05T02:00:30.767Z,53.65
2019-02-05T02:02:58.010Z,53.73
2019-02-05T02:05:24.806Z,53.71
2019-02-05T02:07:51.607Z,53.52
2019-02-05T02:10:21.738Z,53.47
2019-02-05T02:12:48.529Z,53.55
2019-02-05T02:15:15.302Z,53.40
2019-02-05T02:17:42.233Z,53.43
2019-02-05T02:20:12.971Z,53.45
2019-02-05T02:22:39.754Z,53.41
2019-02-05T02:25:09.648Z,53.63
2019-02-05T02:27:36.438Z,53.45
2019-02-05T02:30:11.697Z,53.27
2019-02-05T02:32:38.484Z,53.13
2019-02-05T02:35:05.265Z,53.45
2019-02-05T02:37:32.198Z,53.41
2019-02-05T02:39:58.994Z,53.41
2019-02-05T02:42:25.972Z,53.32
2019-02-05T02:44:52.912Z,53.47
2019-02-05T02:47:19.705Z,53.60
2019-02-05T02:49:46.497Z,53.55
2019-02-05T02:52:13.432Z,53.63
2019-02-05T02:54:40.213Z,53.60
2019-02-05T02:57:07.018Z,53.68
2019-02-05T02:59:33.933Z,53.58
2019-02-05T03:02:01.026Z,53.48
2019-02-05T03:04:27.876Z,53.52
2019-02-05T03:06:54.692Z,53.61
2019-02-05T03:09:21.481Z,53.40
2019-02-05T03:11:48.258Z,53.54
2019-02-05T03:14:15.194Z,53.67
2019-02-05T03:16:41.988Z,53.72
2019-02-05T03:19:08.772Z,53.54
2019-02-05T03:21:35.705Z,53.58
2019-02-05T03:24:02.890Z,53.36
2019-02-05T03:26:29.680Z,53.38
2019-02-05T03:28:57.794Z,53.43
2019-02-05T03:31:24.588Z,53.51
2019-02-05T03:33:51.363Z,53.51
2019-02-05T03:36:18.225Z,53.49
2019-02-05T03:38:45.027Z,53.45
2019-02-05T03:41:11.830Z,53.56
2019-02-05T03:43:38.798Z,53.47
2019-02-05T03:46:05.931Z,53.01
2019-02-05T03:48:32.720Z,53.18
2019-02-05T03:51:13.581Z,53.31
2019-02-05T03:53:45.780Z,53.24
2019-02-05T03:56:53.138Z,52.65
2019-02-05T03:59:54.571Z,52.65
2019-02-05T04:02:41.716Z,53.02
2019-02-05T04:05:26.013Z,53.02
2019-02-05T04:08:07.633Z,52.83
2019-02-05T04:11:15.841Z,53.13
2019-02-05T04:14:09.953Z,53.28
2019-02-05T04:17:09.835Z,53.47
2019-02-05T04:20:04.391Z,53.69
2019-02-05T04:23:09.846Z,53.73
2019-02-05T04:25:53.679Z,53.75
2019-02-05T04:28:34.610Z,54.10
2019-02-05T04:31:38.968Z,53.96
2019-02-05T04:34:40.123Z,53.90
2019-02-05T04:37:30.226Z,54.23
2019-02-05T04:40:26.259Z,54.09
2019-02-05T04:43:33.716Z,54.01
2019-02-05T04:46:24.154Z,54.36
2019-02-05T04:49:24.800Z,54.46
2019-02-05T04:52:21.008Z,54.57
2019-02-05T04:55:23.483Z,54.41
2019-02-05T04:58:12.937Z,54.55
2019-02-05T05:01:08.025Z,54.90
2019-02-05T05:03:45.891Z,54.58
2019-02-05T05:06:21.001Z,54.12
2019-02-05T05:09:14.072Z,54.15
2019-02-05T05:11:41.289Z,54.21
2019-02-05T05:14:08.182Z,54.09
2019-02-05T05:16:34.966Z,54.00
2019-02-05T05:19:01.984Z,54.08
2019-02-05T05:21:28.765Z,54.02
2019-02-05T05:23:55.871Z,53.93
2019-02-05T05:26:22.710Z,53.73
2019-02-05T05:28:49.487Z,53.90
2019-02-05T05:31:16.267Z,53.79
2019-02-05T05:33:43.145Z,53.59
2019-02-05T05:36:09.939Z,53.42
2019-02-05T05:38:36.733Z,53.50
2019-02-05T05:41:03.651Z,53.67
2019-02-05T05:43:30.835Z,53.04
2019-02-05T05:45:57.615Z,52.91
2019-02-05T05:48:24.477Z,53.24
2019-02-05T05:50:51.261Z,53.26
2019-02-05T05:53:18.042Z,53.40
2019-02-05T05:55:44.984Z,53.33
2019-02-05T05:58:22.229Z,53.03
2019-02-05T06:00:40.376Z,52.77
2019-02-05T06:03:07.307Z,52.62
2019-02-05T06:05:34.397Z,52.52
2019-02-05T06:08:01.234Z,52.75
2019-02-05T06:10:28.156Z,52.89
2019-02-05T06:12:54.939Z,52.78
2019-02-05T06:15:21.733Z,53.07
2019-02-05T06:17:48.607Z,53.30
2019-02-05T06:20:17.104Z,53.48
2019-02-05T06:22:43.885Z,53.34
2019-02-05T06:25:11.220Z,53.45
2019-02-05T06:27:38.006Z,53.27
2019-02-05T06:30:16.966Z,53.45
2019-02-05T06:32:43.749Z,53.14
2019-02-05T06:35:10.558Z,53.45
2019-02-05T06:37:37.413Z,53.56
2019-02-05T06:40:28.654Z,53.84
2019-02-05T06:42:55.606Z,53.71
2019-02-05T06:45:22.406Z,53.83
2019-02-05T06:47:49.186Z,54.45
2019-02-05T06:50:16.134Z,54.25
2019-02-05T06:52:42.933Z,54.25
2019-02-05T06:55:12.345Z,54.26
2019-02-05T06:57:39.302Z,53.81
2019-02-05T07:00:22.200Z,53.71
2019-02-05T07:02:49.112Z,53.99
2019-02-05T07:05:15.894Z,54.36
2019-02-05T07:07:42.755Z,54.29
2019-02-05T07:10:23.927Z,54.14
2019-02-05T07:12:50.725Z,54.30
2019-02-05T07:15:17.534Z,55.14
2019-02-05T07:17:50.003Z,55.01
2019-02-05T07:20:14.790Z,55.16
2019-02-05T07:22:41.564Z,54.74
2019-02-05T07:25:16.003Z,54.58
2019-02-05T07:27:43.340Z,54.96
2019-02-05T07:30:14.736Z,54.74
2019-02-05T07:32:41.583Z,54.04
2019-02-05T07:35:08.364Z,54.64
2019-02-05T07:37:35.391Z,54.62
2019-02-05T07:40:09.214Z,54.83
2019-02-05T07:42:36.318Z,54.20
2019-02-05T07:45:07.896Z,54.37
2019-02-05T07:47:34.832Z,54.68
2019-02-05T07:50:01.621Z,54.78
2019-02-05T07:52:28.418Z,55.28
2019-02-05T07:54:55.335Z,55.30
2019-02-05T07:57:22.125Z,55.31
2019-02-05T07:59:48.903Z,55.23
2019-02-05T08:02:15.846Z,55.36
2019-02-05T08:04:42.921Z,55.14
2019-02-05T08:07:09.706Z,54.73
2019-02-05T08:09:36.746Z,54.93
2019-02-05T08:12:03.538Z,55.60
2019-02-05T08:14:30.329Z,55.23
2019-02-05T08:16:57.271Z,54.96
2019-02-05T08:19:24.065Z,54.88
2019-02-05T08:21:50.854Z,54.86
2019-02-05T08:24:17.714Z,55.45
2019-02-05T08:26:44.493Z,55.84
2019-02-05T08:29:21.376Z,56.48
2019-02-05T08:31:40.106Z,56.21
2019-02-05T08:34:06.892Z,56.30
2019-02-05T08:36:33.694Z,56.59
2019-02-05T08:39:00.541Z,56.60
2019-02-05T08:41:27.428Z,56.59
2019-02-05T08:43:54.227Z,56.57
2019-02-05T08:46:21.174Z,56.45
2019-02-05T08:48:48.350Z,56.87
2019-02-05T08:51:15.167Z,56.47
2019-02-05T08:53:42.114Z,56.07
2019-02-05T08:56:08.911Z,56.31
2019-02-05T08:58:35.705Z,56.58
2019-02-05T09:01:02.569Z,56.22
2019-02-05T09:03:29.352Z,56.24
2019-02-05T09:05:56.136Z,56.69
2019-02-05T09:08:22.980Z,56.52
2019-02-05T09:10:54.180Z,56.76
2019-02-05T09:13:20.961Z,56.66
2019-02-05T09:15:47.910Z,56.57
2019-02-05T09:18:14.734Z,57.07
2019-02-05T09:20:41.540Z,57.07
2019-02-05T09:23:08.402Z,57.45
2019-02-05T09:25:35.180Z,58.17
2019-02-05T09:28:01.960Z,58.66
2019-02-05T09:30:34.377Z,58.96
2019-02-05T09:33:05.291Z,58.72
2019-02-05T09:35:32.081Z,58.54
2019-02-05T09:37:59.013Z,59.08
2019-02-05T09:40:29.297Z,58.53
2019-02-05T09:42:56.097Z,58.31
2019-02-05T09:45:23.339Z,58.44
2019-02-05T09:47:50.431Z,60.16
2019-02-05T09:50:17.222Z,59.49
2019-02-05T09:52:44.097Z,59.41
2019-02-05T09:55:16.936Z,59.37
2019-02-05T09:57:43.733Z,59.54
2019-02-05T10:00:15.580Z,59.64
2019-02-05T10:02:42.375Z,59.37
2019-02-05T10:05:13.389Z,59.28
2019-02-05T10:07:40.326Z,58.94
2019-02-05T10:10:11.920Z,58.94
2019-02-05T10:12:38.782Z,59.03
2019-02-05T10:15:16.017Z,59.13
2019-02-05T10:17:42.817Z,59.27
2019-02-05T10:20:11.420Z,58.79
2019-02-05T10:22:38.648Z,58.98
2019-02-05T10:25:08.776Z,59.41
2019-02-05T10:27:35.543Z,59.57
2019-02-05T10:30:05.701Z,59.58
2019-02-05T10:32:32.488Z,60.46
2019-02-05T10:34:59.312Z,60.80
2019-02-05T10:37:26.177Z,60.19
2019-02-05T10:39:53.278Z,60.82
2019-02-05T10:42:20.088Z,61.55
2019-02-05T10:44:47.031Z,61.80
2019-02-05T10:47:13.830Z,62.11
2019-02-05T10:49:40.630Z,62.13
2019-02-05T10:52:07.496Z,60.66
2019-02-05T10:54:35.450Z,59.68
2019-02-05T10:57:02.488Z,59.56
2019-02-05T10:59:29.463Z,60.14
2019-02-05T11:01:56.652Z,60.63
2019-02-05T11:04:23.431Z,60.79
2019-02-05T11:06:50.371Z,61.27
2019-02-05T11:09:17.190Z,61.00
2019-02-05T11:11:43.960Z,61.40
2019-02-05T11:14:10.935Z,61.56
2019-02-05T11:16:37.724Z,62.11
2019-02-05T11:19:04.523Z,62.26
2019-02-05T11:21:31.395Z,62.43
2019-02-05T11:23:58.481Z,62.67
2019-02-05T11:26:25.294Z,62.96
2019-02-05T11:28:52.351Z,62.96
2019-02-05T11:31:19.123Z,62.99
2019-02-05T11:33:45.933Z,62.39
2019-02-05T11:36:12.870Z,62.07
2019-02-05T11:38:39.652Z,62.88
2019-02-05T11:41:06.455Z,63.05
2019-02-05T11:43:33.896Z,63.41
2019-02-05T11:46:00.706Z,62.70
2019-02-05T11:48:27.504Z,63.69
2019-02-05T11:50:54.362Z,63.70
2019-02-05T11:53:21.160Z,63.55
2019-02-05T11:55:47.941Z,64.06
2019-02-05T11:58:14.885Z,63.67
2019-02-05T12:00:41.689Z,63.37
2019-02-05T12:03:09.195Z,63.37
2019-02-05T12:05:36.428Z,63.38
2019-02-05T12:08:03.818Z,62.06
2019-02-05T12:10:30.608Z,61.96
2019-02-05T12:12:57.548Z,60.78
2019-02-05T12:15:24.359Z,58.44
2019-02-05T12:17:51.148Z,55.18
2019-02-05T12:20:18.476Z,53.23
2019-02-05T12:22:46.366Z,51.17
2019-02-05T12:25:21.473Z,48.56
2019-02-05T12:27:48.260Z,46.55
2019-02-05T12:30:25.893Z,44.81
2019-02-05T12:32:52.685Z,43.74
2019-02-05T12:35:19.481Z,42.41
2019-02-05T12:37:46.343Z,41.31
2019-02-05T12:40:17.180Z,41.19
2019-02-05T12:42:44.108Z,40.92
2019-02-05T12:45:29.123Z,40.43
2019-02-05T12:47:55.911Z,39.07
2019-02-05T12:50:25.803Z,37.32
2019-02-05T12:52:52.774Z,35.44
2019-02-05T12:55:20.056Z,34.14
2019-02-05T12:57:46.836Z,32.30
2019-02-05T13:00:32.771Z,31.55
2019-02-05T13:02:59.582Z,30.00
2019-02-05T13:05:26.371Z,29.43
2019-02-05T13:07:55.043Z,28.42
2019-02-05T13:10:32.185Z,28.00
2019-02-05T13:12:59.045Z,28.76
2019-02-05T13:15:25.883Z,31.09
2019-02-05T13:17:52.669Z,33.95
2019-02-05T13:20:25.974Z,36.69
2019-02-05T13:22:53.152Z,39.63
2019-02-05T13:25:29.476Z,42.10
2019-02-05T13:27:56.255Z,44.31
2019-02-05T13:30:30.505Z,46.35
2019-02-05T13:32:57.444Z,47.75
2019-02-05T13:35:24.258Z,49.50
2019-02-05T13:37:51.373Z,50.63
2019-02-05T13:40:27.677Z,51.63
2019-02-05T13:42:54.577Z,52.78
2019-02-05T13:45:26.340Z,53.43
2019-02-05T13:47:53.331Z,54.03
2019-02-05T13:50:33.168Z,54.75
2019-02-05T13:52:56.295Z,55.57
2019-02-05T13:55:28.717Z,56.36
2019-02-05T13:57:55.515Z,56.78
2019-02-05T14:00:35.149Z,56.93
2019-02-05T14:03:01.940Z,57.29
2019-02-05T14:05:28.709Z,57.65
2019-02-05T14:07:55.562Z,58.05
2019-02-05T14:10:28.804Z,58.23
2019-02-05T14:12:55.601Z,58.13
2019-02-05T14:15:31.950Z,58.32
2019-02-05T14:17:58.776Z,58.80
2019-02-05T14:20:25.863Z,59.21
2019-02-05T14:22:52.771Z,59.36
2019-02-05T14:25:19.560Z,59.26
2019-02-05T14:27:46.352Z,59.12
2019-02-05T14:30:24.523Z,59.10
2019-02-05T14:32:51.298Z,59.35
2019-02-05T14:35:18.495Z,59.32
2019-02-05T14:37:46.240Z,59.24
2019-02-05T14:40:19.091Z,59.29
2019-02-05T14:42:45.866Z,59.32
2019-02-05T14:45:13.898Z,59.55
2019-02-05T14:47:40.781Z,59.62
2019-02-05T14:50:27.501Z,59.44
2019-02-05T14:52:54.976Z,59.48
2019-02-05T14:55:21.753Z,59.68
2019-02-05T14:57:48.595Z,59.50
2019-02-05T15:00:20.794Z,59.64
2019-02-05T15:02:47.585Z,59.73
2019-02-05T15:05:14.815Z,59.72
2019-02-05T15:07:41.590Z,59.69
2019-02-05T15:10:16.959Z,59.65
2019-02-05T15:12:43.742Z,59.59
2019-02-05T15:15:24.573Z,59.85
2019-02-05T15:17:51.615Z,59.72
2019-02-05T15:20:37.007Z,59.56
2019-02-05T15:23:04.996Z,59.65
2019-02-05T15:25:31.790Z,59.78
2019-02-05T15:27:58.650Z,59.95
2019-02-05T15:30:34.539Z,60.09
2019-02-05T15:33:01.467Z,60.09
2019-02-05T15:35:28.255Z,60.17
2019-02-05T15:37:55.049Z,60.14
2019-02-05T15:40:21.994Z,60.25
2019-02-05T15:42:48.766Z,60.01
2019-02-05T15:45:17.565Z,60.14
2019-02-05T15:47:44.484Z,60.25
2019-02-05T15:50:12.682Z,60.20
2019-02-05T15:52:39.482Z,59.86
2019-02-05T15:55:13.234Z,59.80
2019-02-05T15:57:40.037Z,60.13
2019-02-05T16:00:17.134Z,60.40
2019-02-05T16:02:43.918Z,60.57
2019-02-05T16:05:11.513Z,60.49
2019-02-05T16:07:38.363Z,59.95
2019-02-05T16:10:10.357Z,59.85
2019-02-05T16:12:37.155Z,59.80
2019-02-05T16:15:07.284Z,59.73
2019-02-05T16:17:34.863Z,59.72
2019-02-05T16:20:01.654Z,59.90
2019-02-05T16:22:28.641Z,60.02
2019-02-05T16:24:55.435Z,59.88
2019-02-05T16:27:22.229Z,59.56
2019-02-05T16:29:49.075Z,59.39
2019-02-05T16:32:17.750Z,59.35
2019-02-05T16:34:44.468Z,59.61
2019-02-05T16:37:11.317Z,59.48
2019-02-05T16:39:38.110Z,59.52
2019-02-05T16:42:04.893Z,59.89
2019-02-05T16:44:31.832Z,60.43
2019-02-05T16:46:58.615Z,60.80
2019-02-05T16:49:25.420Z,60.42
2019-02-05T16:51:52.242Z,59.99
2019-02-05T16:54:19.441Z,59.84
2019-02-05T16:56:46.264Z,60.17
2019-02-05T16:59:13.188Z,60.20
2019-02-05T17:01:39.995Z,60.12
2019-02-05T17:04:06.770Z,59.74
2019-02-05T17:06:33.626Z,59.89
2019-02-05T17:09:00.411Z,59.71
2019-02-05T17:11:27.192Z,59.67
2019-02-05T17:13:54.543Z,59.29
2019-02-05T17:16:21.331Z,59.12
2019-02-05T17:18:48.126Z,59.12
2019-02-05T17:21:14.982Z,59.13
2019-02-05T17:23:43.417Z,59.07
2019-02-05T17:26:10.438Z,59.41
2019-02-05T17:28:37.287Z,59.25
2019-02-05T17:31:04.119Z,59.18
2019-02-05T17:33:30.913Z,59.13
2019-02-05T17:35:57.847Z,58.88
2019-02-05T17:38:25.620Z,58.78
2019-02-05T17:40:54.585Z,58.83
2019-02-05T17:43:21.390Z,58.63
2019-02-05T17:45:48.180Z,58.45
2019-02-05T17:48:15.273Z,58.38
2019-02-05T17:50:42.599Z,58.66
2019-02-05T17:53:09.445Z,58.75
2019-02-05T17:55:36.336Z,58.73
2019-02-05T17:58:08.491Z,58.62
2019-02-05T18:00:35.324Z,58.47
2019-02-05T18:03:02.115Z,58.31
2019-02-05T18:05:29.031Z,58.49
2019-02-05T18:07:56.305Z,58.51
2019-02-05T18:10:25.464Z,58.41
2019-02-05T18:12:52.403Z,58.08
2019-02-05T18:15:27.770Z,58.36
2019-02-05T18:17:54.775Z,58.19
2019-02-05T18:20:21.559Z,58.29
2019-02-05T18:22:48.738Z,58.02
2019-02-05T18:25:18.016Z,57.85
2019-02-05T18:27:44.803Z,58.03
2019-02-05T18:30:16.662Z,57.85
2019-02-05T18:32:43.536Z,58.01
2019-02-05T18:35:10.420Z,57.98
2019-02-05T18:37:37.189Z,57.99
2019-02-05T18:40:14.635Z,58.00
2019-02-05T18:42:41.437Z,57.80
2019-02-05T18:45:12.126Z,57.66
2019-02-05T18:47:39.064Z,57.42
2019-02-05T18:50:10.670Z,57.39
2019-02-05T18:52:37.484Z,57.22
2019-02-05T18:55:10.462Z,57.40
2019-02-05T18:57:37.018Z,57.50
2019-02-05T19:00:15.544Z,57.43
2019-02-05T19:02:42.355Z,57.75
2019-02-05T19:05:10.113Z,57.83
2019-02-05T19:07:37.076Z,57.75
2019-02-05T19:10:09.300Z,57.50
2019-02-05T19:12:36.149Z,57.48
2019-02-05T19:15:07.741Z,57.33
2019-02-05T19:17:34.581Z,57.22
2019-02-05T19:20:01.557Z,56.98
2019-02-05T19:22:28.732Z,57.19
2019-02-05T19:24:56.322Z,57.07
2019-02-05T19:27:23.197Z,57.21
2019-02-05T19:29:50.193Z,57.10
2019-02-05T19:32:17.292Z,57.03
2019-02-05T19:34:44.098Z,56.54
2019-02-05T19:37:11.005Z,56.59
2019-02-05T19:39:37.887Z,56.88
2019-02-05T19:42:04.763Z,56.85
2019-02-05T19:44:31.905Z,56.62
2019-02-05T19:46:58.850Z,56.96
2019-02-05T19:49:26.018Z,57.02
2019-02-05T19:51:52.947Z,57.17
2019-02-05T19:54:20.354Z,57.01
2019-02-05T19:56:47.252Z,57.12
2019-02-05T19:59:14.418Z,57.25
2019-02-05T20:01:41.495Z,57.26
2019-02-05T20:04:08.358Z,57.13
2019-02-05T20:06:35.556Z,57.07
2019-02-05T20:09:02.715Z,56.91
2019-02-05T20:11:29.814Z,56.96
2019-02-05T20:13:56.930Z,57.04
2019-02-05T20:16:23.788Z,57.03
2019-02-05T20:18:51.870Z,56.90
2019-02-05T20:21:18.872Z,56.59
2019-02-05T20:23:45.740Z,56.81
2019-02-05T20:26:12.625Z,57.08
2019-02-05T20:28:39.533Z,56.87
2019-02-05T20:31:06.386Z,56.64
2019-02-05T20:33:33.259Z,56.20
2019-02-05T20:36:00.226Z,56.41
2019-02-05T20:38:27.298Z,56.41
2019-02-05T20:40:54.393Z,56.42
2019-02-05T20:43:21.349Z,56.21
2019-02-05T20:45:48.178Z,56.42
2019-02-05T20:48:15.304Z,56.15
2019-02-05T20:50:42.273Z,56.04
2019-02-05T20:53:13.972Z,56.22
2019-02-05T20:55:37.761Z,56.47
2019-02-05T20:58:04.733Z,56.60
2019-02-05T21:00:31.968Z,56.31
2019-02-05T21:02:58.796Z,56.28
2019-02-05T21:05:25.762Z,56.44
2019-02-05T21:07:52.583Z,56.37
2019-02-05T21:10:30.844Z,56.24
2019-02-05T21:12:57.639Z,56.36
2019-02-05T21:15:24.451Z,56.30
2019-02-05T21:17:51.420Z,56.29
2019-02-05T21:20:33.818Z,56.30
2019-02-05T21:23:00.672Z,56.40
2019-02-05T21:25:27.540Z,56.24
2019-02-05T21:27:54.396Z,56.04
2019-02-05T21:30:23.745Z,56.00
2019-02-05T21:32:50.529Z,56.08
2019-02-05T21:35:17.325Z,55.88
2019-02-05T21:37:44.270Z,56.10
2019-02-05T21:40:20.850Z,55.94
2019-02-05T21:42:47.788Z,56.08
2019-02-05T21:45:21.078Z,56.11
2019-02-05T21:47:47.867Z,56.33
2019-02-05T21:50:20.329Z,56.48
2019-02-05T21:52:48.672Z,56.45
2019-02-05T21:55:22.583Z,56.71
2019-02-05T21:57:49.943Z,56.38
2019-02-05T22:00:34.775Z,56.25
2019-02-05T22:03:01.650Z,56.00
2019-02-05T22:05:30.548Z,56.09
2019-02-05T22:07:57.968Z,55.70
2019-02-05T22:10:24.758Z,55.77
2019-02-05T22:12:51.643Z,55.91
2019-02-05T22:15:19.666Z,55.92
2019-02-05T22:17:46.450Z,56.13
2019-02-05T22:20:16.164Z,55.91
2019-02-05T22:22:43.033Z,56.08
2019-02-05T22:25:15.223Z,56.44
2019-02-05T22:27:42.089Z,56.06
2019-02-05T22:30:28.674Z,55.94
2019-02-05T22:32:55.541Z,56.20
2019-02-05T22:35:22.329Z,56.11
2019-02-05T22:37:49.480Z,55.96
2019-02-05T22:40:21.541Z,55.77
2019-02-05T22:42:48.330Z,55.70
2019-02-05T22:45:19.864Z,55.54
2019-02-05T22:47:46.638Z,55.47
2019-02-05T22:50:19.754Z,55.91
2019-02-05T22:52:46.676Z,56.10
2019-02-05T22:55:13.484Z,55.74
2019-02-05T22:57:40.257Z,55.81
2019-02-05T23:00:42.497Z,55.96
2019-02-05T23:03:09.694Z,56.12
2019-02-05T23:06:02.726Z,56.19
2019-02-05T23:08:29.507Z,56.16
2019-02-05T23:11:23.001Z,56.40
2019-02-05T23:13:49.792Z,56.26
2019-02-05T23:16:16.595Z,56.38
2019-02-05T23:18:43.432Z,56.50
2019-02-05T23:21:10.219Z,56.54
2019-02-05T23:23:37.013Z,56.33
2019-02-05T23:26:03.880Z,56.30
2019-02-05T23:28:31.138Z,56.27
2019-02-05T23:30:57.926Z,55.96
2019-02-05T23:33:24.816Z,55.79
2019-02-05T23:35:51.596Z,55.57
2019-02-05T23:38:18.390Z,55.39
2019-02-05T23:40:45.315Z,55.61
2019-02-05T23:43:12.096Z,55.58
2019-02-05T23:45:38.881Z,55.44
2019-02-05T23:48:06.212Z,55.12
2019-02-05T23:50:33.010Z,54.71
2019-02-05T23:52:59.815Z,55.12
2019-02-05T23:55:26.679Z,55.23
2019-02-05T23:57:53.477Z,55.37
